Terminal Aerodrome Forecast
Issued by NWS

Home | Current Version | Previous Version | Text Only | Print | Product List | Glossary On
Versions: 1 2 3 4 5 6 7 8 9 10 11 12 13 14 15 16 17 18 19
860
FTAK31 PAJN 102335
TAFAPG
TAF
PAPG 102335Z 1100/1124 VRB06KT P6SM SCT010 SCT025 OVC040
     FM110600 13010G18KT 4SM -RA BR OVC025 WS020/13030KT
     FM111200 12010KT 4SM BR FEW002 SCT005 OVC040=

USA.gov is the U.S. government's official web portal to all federal, state and local government web resources and services.